Time;durP1;ratioP1;P1;durP2;ratioP2;P2;SDS_P1;SDS_P2;PMS_P1;PMS_P2;Temp;Humidity;BMP_temperature;BMP_pressure;BME280_temperature;BME280_humidity;BME280_pressure;Samples;Min_cycle;Max_cycle;Signal;HPM_P1;HPM_P2
2022/09/12 00:00:18;;;;;;;263.57;239.68;;;;;;;9.71;100.00;100221.78;1752476;79;20944;-89
2022/09/12 00:02:44;;;;;;;323.50;294.65;;;;;;;9.71;100.00;100229.31;1753162;79;21686;-88
2022/09/12 00:05:10;;;;;;;273.35;249.47;;;;;;;9.71;100.00;100229.31;1758700;81;20971;-88
2022/09/12 00:07:36;;;;;;;300.75;274.55;;;;;;;9.72;100.00;100232.80;1730615;81;21380;-88
2022/09/12 00:10:02;;;;;;;289.93;264.80;;;;;;;9.73;100.00;100228.48;1753130;81;21039;-87
2022/09/12 00:12:28;;;;;;;272.37;248.35;;;;;;;9.73;100.00;100225.80;1747998;79;21109;-87
2022/09/12 00:14:54;;;;;;;268.27;244.95;;;;;;;9.76;100.00;100227.16;1740775;80;21673;-88
2022/09/12 00:17:20;;;;;;;314.23;288.05;;;;;;;9.77;100.00;100232.30;1756177;80;20888;-87
2022/09/12 00:19:46;;;;;;;308.55;281.08;;;;;;;9.81;100.00;100231.22;1764634;80;21066;-89
2022/09/12 00:22:12;;;;;;;284.07;258.50;;;;;;;9.85;100.00;100220.19;1751813;80;21138;-89
2022/09/12 00:24:39;;;;;;;330.83;301.92;;;;;;;9.89;100.00;100225.34;1754597;80;21109;-89
2022/09/12 00:27:05;;;;;;;355.32;324.58;;;;;;;9.93;100.00;100214.30;1756040;81;21102;-88
2022/09/12 00:29:31;;;;;;;305.65;278.85;;;;;;;9.96;100.00;100212.97;1756807;79;21092;-89
2022/09/12 00:31:57;;;;;;;334.92;305.87;;;;;;;9.94;100.00;100209.72;1771734;79;20896;-88
2022/09/12 00:34:23;;;;;;;336.35;305.45;;;;;;;9.96;100.00;100206.23;1774563;80;21735;-89
2022/09/12 00:36:49;;;;;;;362.88;330.12;;;;;;;9.97;100.00;100204.64;1768384;78;21115;-89
2022/09/12 00:39:16;;;;;;;341.73;310.20;;;;;;;10.01;100.00;100210.30;1763112;80;21014;-88
2022/09/12 00:41:43;;;;;;;320.55;291.95;;;;;;;10.00;100.00;100201.96;1749370;80;21531;-89
2022/09/12 00:44:26;;;;;;;320.55;290.57;;;;;;;10.03;100.00;100205.47;1731042;80;20959;-88
2022/09/12 00:46:57;;;;;;;339.52;309.67;;;;;;;10.06;100.00;100203.59;1754730;79;21078;-88
2022/09/12 00:49:46;;;;;;;335.27;304.40;;;;;;;10.11;100.00;100211.66;1761193;79;21075;-89
2022/09/12 00:52:32;;;;;;;333.77;302.62;;;;;;;10.16;100.00;100213.56;1752471;79;21031;-89
2022/09/12 00:55:13;;;;;;;313.15;284.02;;;;;;;10.19;100.00;100204.41;1715697;81;21030;-88
2022/09/12 00:57:58;;;;;;;315.73;287.80;;;;;;;10.21;100.00;100210.34;1614339;87;21164;-87
2022/09/12 01:00:26;;;;;;;296.98;269.95;;;;;;;10.23;100.00;100213.59;1609999;88;21205;-89
2022/09/12 01:03:09;;;;;;;284.07;258.13;;;;;;;10.29;100.00;100209.02;1615378;86;22004;-89
2022/09/12 01:05:39;;;;;;;291.73;266.00;;;;;;;10.35;100.00;100212.02;1586915;88;21072;-87
2022/09/12 01:08:05;;;;;;;282.23;257.27;;;;;;;10.44;100.00;100202.33;1610807;86;21148;-89
2022/09/12 01:10:34;;;;;;;286.70;261.32;;;;;;;10.52;100.00;100200.97;1623691;86;21064;-90
2022/09/12 01:13:05;;;;;;;248.70;226.88;;;;;;;10.55;100.00;100196.39;1618798;87;21108;-88
2022/09/12 01:15:31;;;;;;;280.70;256.25;;;;;;;10.59;100.00;100193.95;1591986;88;21060;-88
2022/09/12 01:18:20;;;;;;;304.48;278.00;;;;;;;10.65;100.00;100196.95;1608936;88;21552;-90
2022/09/12 01:21:22;;;;;;;269.23;244.97;;;;;;;10.72;100.00;100202.86;1587884;88;21111;-89
2022/09/12 01:24:18;;;;;;;259.77;236.95;;;;;;;10.79;100.00;100204.73;1485260;95;21120;-87
2022/09/12 01:27:07;;;;;;;303.27;276.73;;;;;;;10.88;100.00;100200.44;1482071;95;21105;-88
2022/09/12 01:29:55;;;;;;;323.38;294.07;;;;;;;10.97;100.00;100203.91;1482078;95;21131;-88
2022/09/12 01:32:46;;;;;;;280.40;254.78;;;;;;;11.03;100.00;100202.81;1508409;91;21111;-89
2022/09/12 01:35:23;;;;;;;290.80;265.10;;;;;;;11.09;100.00;100197.71;1534011;91;21131;-88
2022/09/12 01:38:23;;;;;;;256.05;233.55;;;;;;;11.12;100.00;100192.57;1557683;89;21157;-89
2022/09/12 01:41:03;;;;;;;263.65;240.70;;;;;;;11.17;100.00;100193.08;1535332;92;21160;-88
2022/09/12 01:43:42;;;;;;;265.90;243.27;;;;;;;11.21;100.00;100193.37;1538716;91;22037;-89
2022/09/12 01:46:22;;;;;;;221.95;202.13;;;;;;;11.27;100.00;100196.31;1534110;92;21130;-89
2022/09/12 01:49:01;;;;;;;240.25;219.22;;;;;;;11.32;100.00;100197.63;1521222;92;21183;-89
2022/09/12 01:51:35;;;;;;;246.00;224.15;;;;;;;11.35;100.00;100199.27;1519696;92;21080;-88
2022/09/12 01:54:33;;;;;;;216.78;197.17;;;;;;;11.41;100.00;100192.48;1527200;90;20990;-88
2022/09/12 01:57:05;;;;;;;207.77;190.00;;;;;;;11.43;100.00;100193.02;1500746;93;22094;-88
2022/09/12 01:59:42;;;;;;;234.67;214.12;;;;;;;11.43;100.00;100194.37;1497592;94;21307;-89
2022/09/12 02:02:22;;;;;;;259.55;237.55;;;;;;;11.43;100.00;100193.02;1481976;94;21126;-88
2022/09/12 02:04:54;;;;;;;212.97;195.00;;;;;;;11.44;100.00;100190.58;1477649;95;21395;-88
2022/09/12 02:07:34;;;;;;;217.55;198.87;;;;;;;11.43;100.00;100184.92;1479690;95;21657;-89
2022/09/12 02:10:17;;;;;;;223.53;204.55;;;;;;;11.42;100.00;100182.77;1478646;95;21233;-88
2022/09/12 02:13:07;;;;;;;231.95;212.32;;;;;;;11.42;100.00;100186.02;1460326;97;21152;-88
2022/09/12 02:15:40;;;;;;;211.65;193.65;;;;;;;11.44;100.00;100186.53;1435962;98;21116;-88
2022/09/12 02:18:07;;;;;;;198.68;181.30;;;;;;;11.47;100.00;100186.81;1441915;98;21084;-88
2022/09/12 02:20:37;;;;;;;200.55;184.13;;;;;;;11.50;100.00;100191.66;1504781;93;21886;-88
2022/09/12 02:23:08;;;;;;;212.48;193.80;;;;;;;11.53;100.00;100188.41;1501634;94;21329;-87
2022/09/12 02:25:38;;;;;;;214.70;196.82;;;;;;;11.57;100.00;100194.05;1499637;94;21169;-88
2022/09/12 02:28:09;;;;;;;219.13;200.50;;;;;;;11.60;100.00;100190.25;1499568;94;21140;-89
2022/09/12 02:30:41;;;;;;;214.40;196.93;;;;;;;11.64;100.00;100190.50;1498545;94;21225;-89
2022/09/12 02:33:18;;;;;;;228.05;208.75;;;;;;;11.66;100.00;100188.34;1501005;94;21208;-88
2022/09/12 02:36:05;;;;;;;242.70;222.17;;;;;;;11.68;100.00;100191.58;1490279;95;21140;-88
2022/09/12 02:38:45;;;;;;;206.50;188.85;;;;;;;11.67;100.00;100193.99;1505875;93;21501;-88
2022/09/12 02:41:15;;;;;;;217.07;199.25;;;;;;;11.72;100.00;100185.08;1507705;94;21634;-89
2022/09/12 02:43:42;;;;;;;215.60;197.68;;;;;;;11.74;100.00;100178.87;1512351;94;21140;-89
2022/09/12 02:46:13;;;;;;;206.72;188.97;;;;;;;11.78;100.00;100183.42;1502675;94;21572;-88
2022/09/12 02:48:42;;;;;;;224.92;205.70;;;;;;;11.80;100.00;100177.20;1507558;94;21190;-88
2022/09/12 02:51:10;;;;;;;198.78;181.00;;;;;;;11.81;100.00;100188.81;1563842;91;21201;-88
2022/09/12 02:53:37;;;;;;;219.00;200.60;;;;;;;11.79;100.00;100185.56;1613675;86;21116;-88
2022/09/12 02:56:07;;;;;;;239.88;219.20;;;;;;;11.76;100.00;100185.58;1621669;85;21042;-90
2022/09/12 02:58:33;;;;;;;203.58;185.78;;;;;;;11.69;100.00;100185.08;1632888;86;21100;-89
2022/09/12 03:01:30;;;;;;;210.53;193.20;;;;;;;11.65;100.00;100179.16;1643094;81;21131;-89
2022/09/12 03:04:16;;;;;;;205.65;188.22;;;;;;;11.64;100.00;100178.90;1756550;81;20928;-89
2022/09/12 03:07:21;;;;;;;207.62;190.92;;;;;;;11.64;100.00;100181.05;1745257;81;21472;-89
2022/09/12 03:10:11;;;;;;;198.23;181.87;;;;;;;11.60;100.00;100181.35;1740646;81;21024;-88
2022/09/12 03:12:48;;;;;;;179.72;165.22;;;;;;;11.59;100.00;100178.40;1739760;81;21376;-88
2022/09/12 03:15:54;;;;;;;219.25;199.82;;;;;;;11.63;100.00;100176.75;1749646;80;21975;-88
2022/09/12 03:18:42;;;;;;;179.35;162.88;;;;;;;11.63;100.00;100177.30;1709147;82;20979;-89
2022/09/12 03:21:28;;;;;;;199.30;181.40;;;;;;;11.66;100.00;100182.14;1704888;83;21038;-88
2022/09/12 03:24:14;;;;;;;212.12;190.70;;;;;;;11.70;100.00;100175.09;1645258;85;21143;-88
2022/09/12 03:26:54;;;;;;;257.20;232.92;;;;;;;11.73;100.00;100178.58;1641395;86;21538;-89
2022/09/12 03:29:23;;;;;;;204.65;186.05;;;;;;;11.73;100.00;100167.23;1638846;86;21631;-88
2022/09/12 03:31:56;;;;;;;218.57;199.23;;;;;;;11.76;100.00;100163.98;1636404;86;21028;-88
2022/09/12 03:34:25;;;;;;;209.60;190.32;;;;;;;11.81;100.00;100163.96;1643754;87;21666;-88
2022/09/12 03:39:23;;;;;;;233.32;212.90;;;;;;;11.86;100.00;100159.13;1553885;91;21182;-89
2022/09/12 03:41:50;;;;;;;196.55;180.00;;;;;;;11.95;100.00;100159.34;1554414;90;21139;-88
2022/09/12 03:44:17;;;;;;;193.50;177.17;;;;;;;12.04;100.00;100159.81;1547998;91;21602;-86
2022/09/12 03:46:44;;;;;;;189.95;173.62;;;;;;;12.16;100.00;100149.20;1549877;90;21070;-88
2022/09/12 03:49:10;;;;;;;201.80;184.37;;;;;;;12.31;100.00;100149.09;1547843;91;21134;-88
2022/09/12 03:51:37;;;;;;;223.90;205.35;;;;;;;12.46;100.00;100146.25;1541676;91;21185;-87
2022/09/12 03:54:04;;;;;;;190.62;174.60;;;;;;;12.58;100.00;100148.59;1548330;90;21350;-88
2022/09/12 03:56:31;;;;;;;192.45;176.32;;;;;;;12.65;100.00;100146.92;1567180;90;21666;-85
2022/09/12 03:58:57;;;;;;;181.28;167.22;;;;;;;12.79;100.00;100155.16;1570876;89;21092;-90
2022/09/12 04:01:23;;;;;;;197.02;180.20;;;;;;;12.93;100.00;100156.91;1587414;87;21080;-89
2022/09/12 04:03:51;;;;;;;201.92;186.18;;;;;;;13.05;100.00;100163.83;1573401;88;21162;-88
2022/09/12 04:06:20;;;;;;;200.47;183.40;;;;;;;13.21;100.00;100167.16;1569376;88;21285;-87
2022/09/12 04:08:52;;;;;;;185.97;171.43;;;;;;;13.34;100.00;100166.52;1571184;87;21179;-88
2022/09/12 04:11:20;;;;;;;177.38;163.28;;;;;;;13.40;100.00;100167.52;1570453;89;21191;-92
2022/09/12 04:13:47;;;;;;;198.30;183.40;;;;;;;13.43;100.00;100166.13;1582393;89;21303;-88
2022/09/12 04:16:15;;;;;;;192.95;177.82;;;;;;;13.44;100.00;100161.52;1584768;88;21048;-87
2022/09/12 04:18:41;;;;;;;181.63;167.07;;;;;;;13.50;100.00;100157.65;1578637;88;21177;-89
2022/09/12 04:21:15;;;;;;;176.05;162.43;;;;;;;13.51;100.00;100157.92;1601618;86;21646;-89
2022/09/12 04:23:41;;;;;;;203.95;187.40;;;;;;;13.62;100.00;100153.45;1578996;88;21085;-89
2022/09/12 04:26:08;;;;;;;208.28;191.62;;;;;;;13.80;100.00;100156.47;1575525;89;21121;-89
2022/09/12 04:28:37;;;;;;;181.37;167.15;;;;;;;13.96;100.00;100159.20;1564935;89;21448;-88
2022/09/12 04:31:11;;;;;;;196.47;180.97;;;;;;;14.13;100.00;100167.38;1574510;90;21236;-88
2022/09/12 04:33:37;;;;;;;211.00;194.17;;;;;;;14.40;100.00;100153.92;1490936;94;21255;-86
2022/09/12 04:36:13;;;;;;;202.47;186.05;;;;;;;14.73;100.00;100152.59;1523481;88;21112;-87
2022/09/12 04:38:39;;;;;;;166.03;152.32;;;;;;;15.02;100.00;100151.53;1545449;91;21134;-88
2022/09/12 04:41:25;;;;;;;170.45;156.05;;;;;;;15.31;100.00;100153.40;1551533;91;21239;-87
2022/09/12 04:43:57;;;;;;;196.45;179.87;;;;;;;15.72;100.00;100153.14;1533186;91;22036;-89
2022/09/12 04:46:23;;;;;;;134.15;120.90;;;;;;;16.81;100.00;100159.27;1544502;91;21237;-87
2022/09/12 04:48:50;;;;;;;93.72;85.22;;;;;;;17.77;100.00;100161.77;1530153;90;21803;-89
2022/09/12 04:51:27;;;;;;;100.07;90.80;;;;;;;17.91;100.00;100165.19;1530834;92;21673;-89
2022/09/12 04:53:57;;;;;;;101.07;92.25;;;;;;;17.92;100.00;100164.62;1398295;101;21171;-88
2022/09/12 04:56:25;;;;;;;99.52;90.20;;;;;;;17.84;100.00;100154.50;1393403;100;21751;-90
2022/09/12 04:58:51;;;;;;;96.17;87.27;;;;;;;17.75;100.00;100143.55;1401271;101;21191;-89
2022/09/12 05:01:20;;;;;;;96.80;88.67;;;;;;;17.63;100.00;100139.30;1392579;100;21290;-87
2022/09/12 05:03:49;;;;;;;101.42;92.20;;;;;;;17.47;100.00;100140.28;1401407;100;21132;-86
2022/09/12 05:06:22;;;;;;;108.80;98.65;;;;;;;17.44;100.00;100145.01;1398676;100;21655;-92
2022/09/12 05:08:50;;;;;;;106.90;96.25;;;;;;;17.39;100.00;100135.64;1401121;100;21251;-88
2022/09/12 05:11:22;;;;;;;108.65;98.12;;;;;;;17.34;100.00;100134.42;1392796;100;21171;-88
2022/09/12 05:13:48;;;;;;;120.77;109.43;;;;;;;17.32;100.00;100137.45;1385151;102;21360;-88
2022/09/12 05:16:17;;;;;;;112.85;101.50;;;;;;;17.31;100.00;100140.50;1371630;103;21228;-88
2022/09/12 05:18:45;;;;;;;115.90;105.00;;;;;;;17.33;100.00;100146.45;1371085;103;21214;-88
2022/09/12 05:21:14;;;;;;;114.55;103.00;;;;;;;17.46;100.00;100149.59;1362425;102;21264;-88
2022/09/12 05:23:41;;;;;;;109.50;99.07;;;;;;;17.57;100.00;100153.63;1409929;100;21163;-88
2022/09/12 05:26:11;;;;;;;109.78;99.80;;;;;;;17.61;100.00;100162.77;1400065;100;21085;-88
2022/09/12 05:28:38;;;;;;;104.67;94.90;;;;;;;17.62;100.00;100157.58;1417627;100;21648;-88
2022/09/12 05:31:14;;;;;;;122.50;110.65;;;;;;;17.57;100.00;100150.11;1438641;96;21268;-88
2022/09/12 05:33:44;;;;;;;97.40;88.67;;;;;;;17.49;100.00;100153.04;1453556;95;21199;-88
2022/09/12 05:36:15;;;;;;;104.27;94.92;;;;;;;17.40;100.00;100161.19;1462920;95;21302;-87
2022/09/12 05:38:42;;;;;;;110.88;100.60;;;;;;;17.38;100.00;100156.64;1464075;96;21132;-88
2022/09/12 05:41:12;;;;;;;132.47;119.72;;;;;;;17.37;100.00;100154.22;1492392;93;21250;-88
2022/09/12 05:43:41;;;;;;;115.97;105.95;;;;;;;17.37;100.00;100155.02;1508859;93;21076;-88
2022/09/12 05:46:14;;;;;;;122.33;111.10;;;;;;;17.37;100.00;100152.86;1476964;93;21160;-88
2022/09/12 05:48:43;;;;;;;108.55;99.17;;;;;;;17.33;100.00;100152.69;1401109;100;21168;-88
2022/09/12 05:51:13;;;;;;;114.40;104.07;;;;;;;17.30;100.00;100151.96;1439057;96;21084;-88
2022/09/12 05:53:40;;;;;;;118.97;108.20;;;;;;;17.36;100.00;100151.26;1460825;96;21756;-87
2022/09/12 05:56:14;;;;;;;108.57;98.97;;;;;;;17.43;100.00;100155.11;1457066;92;21155;-88
2022/09/12 05:58:45;;;;;;;114.77;103.85;;;;;;;17.44;100.00;100159.45;1474965;95;21215;-88
2022/09/12 06:01:16;;;;;;;118.97;108.05;;;;;;;17.51;100.00;100155.47;1469266;96;21163;-91
2022/09/12 06:03:47;;;;;;;126.65;115.60;;;;;;;17.59;100.00;100155.48;1462927;96;21169;-87
2022/09/12 06:06:15;;;;;;;128.85;117.47;;;;;;;17.71;100.00;100142.60;1458345;96;21199;-88
2022/09/12 06:08:45;;;;;;;112.50;102.35;;;;;;;17.80;100.00;100142.08;1454857;97;21160;-89
2022/09/12 06:11:15;;;;;;;102.00;93.07;;;;;;;17.97;100.00;100142.66;1449283;97;21494;-88
2022/09/12 06:13:43;;;;;;;105.45;95.92;;;;;;;18.10;100.00;100140.88;1435487;97;21113;-88
2022/09/12 06:16:17;;;;;;;96.85;88.45;;;;;;;18.24;100.00;100140.16;1453627;97;21190;-89
2022/09/12 06:18:50;;;;;;;100.62;92.02;;;;;;;18.25;100.00;100142.31;1398065;100;21309;-88
2022/09/12 06:21:17;;;;;;;102.40;92.90;;;;;;;18.28;100.00;100148.49;1387253;102;21144;-88
2022/09/12 06:23:47;;;;;;;100.60;91.40;;;;;;;18.21;100.00;100150.92;1395318;101;21683;-88
2022/09/12 06:26:15;;;;;;;96.92;88.80;;;;;;;18.02;100.00;100152.02;1395613;102;21200;-90
2022/09/12 06:28:46;;;;;;;112.17;102.12;;;;;;;17.87;100.00;100153.30;1399502;102;21135;-89
2022/09/12 06:31:17;;;;;;;120.10;109.48;;;;;;;17.85;100.00;100143.83;1387427;101;21151;-89
2022/09/12 06:33:47;;;;;;;118.85;108.25;;;;;;;17.97;100.00;100150.01;1389442;101;21150;-89
2022/09/12 06:36:21;;;;;;;119.90;109.32;;;;;;;18.14;100.00;100149.45;1384430;101;21189;-89
2022/09/12 06:38:48;;;;;;;110.88;101.15;;;;;;;18.33;100.00;100149.13;1392085;102;21266;-89
2022/09/12 06:41:15;;;;;;;111.10;100.55;;;;;;;18.45;100.00;100147.68;1392371;101;21707;-89
2022/09/12 06:43:42;;;;;;;123.95;112.50;;;;;;;18.52;100.00;100151.50;1386243;102;21133;-89
2022/09/12 06:46:10;;;;;;;122.35;110.78;;;;;;;18.52;100.00;100154.80;1429353;98;21148;-89
2022/09/12 06:48:36;;;;;;;104.43;93.87;;;;;;;18.43;100.00;100160.27;1438768;98;21856;-88
2022/09/12 06:51:07;;;;;;;121.10;110.00;;;;;;;18.30;100.00;100176.26;1437382;99;21596;-89
2022/09/12 06:53:35;;;;;;;133.00;120.08;;;;;;;18.25;100.00;100177.21;1395398;100;21096;-89
2022/09/12 06:56:09;;;;;;;122.58;111.05;;;;;;;18.36;100.00;100181.22;1448378;96;21686;-88
2022/09/12 06:58:35;;;;;;;;;;;;;;;18.45;100.00;100168.94;1474307;96;21179;-88
2022/09/12 07:01:16;;;;;;;115.82;104.23;;;;;;;18.50;100.00;100179.70;1472739;96;21692;-88
2022/09/12 07:03:45;;;;;;;121.33;109.67;;;;;;;18.55;100.00;100183.59;1370429;102;21300;-88
2022/09/12 07:06:14;;;;;;;106.47;96.67;;;;;;;18.58;100.00;100182.95;1359470;104;21190;-86
2022/09/12 07:08:56;;;;;;;;;;;;;;;;;;;;;
2022/09/12 07:11:19;;;;;;;;;;;;;;;18.66;100.00;100182.70;1340738;104;21313;-88
2022/09/12 07:13:49;;;;;;;118.42;107.55;;;;;;;18.66;100.00;100188.73;1368068;103;21231;-88
2022/09/12 07:16:16;;;;;;;119.33;108.15;;;;;;;18.64;100.00;100191.77;1373602;103;21223;-88
2022/09/12 07:18:45;;;;;;;116.08;105.17;;;;;;;18.54;100.00;100198.95;1361443;104;21712;-88
2022/09/12 07:21:14;;;;;;;124.65;113.37;;;;;;;18.39;100.00;100197.52;1374622;102;21544;-88
2022/09/12 07:23:41;;;;;;;120.82;109.85;;;;;;;18.22;100.00;100193.42;1403093;100;21222;-88
2022/09/12 07:26:12;;;;;;;119.17;108.03;;;;;;;18.03;100.00;100201.36;1407176;100;21221;-88
2022/09/12 07:28:38;;;;;;;127.92;116.62;;;;;;;17.93;100.00;100196.20;1389502;102;21149;-87
2022/09/12 07:31:14;;;;;;;124.85;113.90;;;;;;;17.81;100.00;100196.83;1397082;100;21159;-87
2022/09/12 07:33:41;;;;;;;143.62;130.47;;;;;;;17.68;100.00;100190.93;1361174;103;21216;-90
2022/09/12 07:36:12;;;;;;;137.95;125.87;;;;;;;17.51;100.00;100193.61;1387901;102;21730;-88
2022/09/12 07:38:39;;;;;;;148.13;135.22;;;;;;;17.44;100.00;100192.15;1403484;100;21254;-88
2022/09/12 07:41:14;;;;;;;131.20;119.42;;;;;;;17.37;100.00;100190.98;1391491;100;21751;-91
2022/09/12 07:43:40;;;;;;;147.45;134.10;;;;;;;17.31;100.00;100193.61;1404618;100;21311;-89
2022/09/12 07:46:08;;;;;;;160.25;146.00;;;;;;;17.37;100.00;100195.88;1386431;101;21211;-88
2022/09/12 07:48:34;;;;;;;157.15;143.50;;;;;;;17.51;100.00;100203.94;1391049;101;21199;-88
2022/09/12 07:51:04;;;;;;;149.62;136.37;;;;;;;17.67;100.00;100192.83;1406420;99;21177;-87
2022/09/12 07:53:34;;;;;;;149.57;136.00;;;;;;;17.81;100.00;100178.31;1399246;100;21148;-87
2022/09/12 07:56:01;;;;;;;152.00;138.40;;;;;;;17.94;100.00;100180.08;1401591;99;21245;-86
2022/09/12 07:58:29;;;;;;;142.43;129.63;;;;;;;18.03;100.00;100180.91;1391100;99;21164;-87
2022/09/12 08:01:09;;;;;;;153.82;140.47;;;;;;;18.19;100.00;100181.80;1476447;91;21116;-87
2022/09/12 08:03:40;;;;;;;145.85;133.32;;;;;;;18.32;100.00;100173.99;1576681;89;21267;-91
2022/09/12 08:06:10;;;;;;;168.20;153.55;;;;;;;18.43;100.00;100169.81;1575482;88;21058;-90
2022/09/12 08:08:37;;;;;;;167.98;153.60;;;;;;;18.53;100.00;100158.58;1585102;86;21105;-92
2022/09/12 08:11:13;;;;;;;165.37;148.90;;;;;;;18.71;100.00;100165.38;1634676;84;21106;-89
2022/09/12 08:13:41;;;;;;;176.35;160.25;;;;;;;18.91;100.00;100155.69;1660700;83;21069;-89
2022/09/12 08:16:17;;;;;;;208.32;189.80;;;;;;;19.06;100.00;100162.80;1658923;84;21217;-90
2022/09/12 08:18:44;;;;;;;157.15;143.57;;;;;;;19.18;100.00;100155.84;1617523;86;21792;-91
2022/09/12 08:21:23;;;;;;;210.45;192.15;;;;;;;19.23;100.00;100155.07;1612306;87;21086;-89
2022/09/12 08:23:54;;;;;;;175.53;158.85;;;;;;;19.25;100.00;100147.92;1619659;86;21594;-93
2022/09/12 08:26:21;;;;;;;188.60;171.65;;;;;;;19.28;100.00;100144.53;1612590;86;21593;-91
2022/09/12 08:28:48;;;;;;;168.30;153.72;;;;;;;19.21;100.00;100134.12;1610708;88;21192;-89
2022/09/12 08:31:18;;;;;;;188.62;172.40;;;;;;;19.09;100.00;100133.20;1610174;87;21125;-90
2022/09/12 08:33:44;;;;;;;175.78;160.60;;;;;;;19.09;100.00;100138.66;1611740;87;21161;-89
2022/09/12 08:36:20;;;;;;;156.47;142.77;;;;;;;19.03;100.00;100144.88;1615558;87;21125;-90
2022/09/12 08:38:50;;;;;;;160.67;147.35;;;;;;;18.97;100.00;100139.36;1607899;87;21811;-90
2022/09/12 08:41:42;;;;;;;163.32;149.95;;;;;;;18.90;100.00;100139.08;1609182;86;21896;-90
2022/09/12 08:44:48;;;;;;;190.10;169.82;;;;;;;18.87;100.00;100147.35;1616216;87;21069;-91
2022/09/12 08:47:37;;;;;;;223.78;176.60;;;;;;;18.80;100.00;100156.05;1619790;86;21319;-87
2022/09/12 08:50:11;;;;;;;163.62;145.35;;;;;;;18.73;100.00;100157.09;1582702;88;21258;-90
2022/09/12 08:53:02;;;;;;;176.40;160.03;;;;;;;18.66;100.00;100150.52;1609244;84;21149;-90
2022/09/12 08:55:46;;;;;;;145.32;131.03;;;;;;;18.53;100.00;100142.20;1627427;86;21201;-89
2022/09/12 08:58:19;;;;;;;169.37;152.40;;;;;;;18.38;100.00;100142.16;1567080;90;26609;-89
2022/09/12 09:00:59;;;;;;;206.25;187.95;;;;;;;18.37;100.00;100134.27;1527866;92;21075;-90
2022/09/12 09:03:51;;;;;;;195.03;177.75;;;;;;;18.37;100.00;100135.64;1529490;91;21253;-89
2022/09/12 09:06:51;;;;;;;211.43;193.72;;;;;;;18.38;100.00;100145.42;1471328;95;21117;-88
2022/09/12 09:09:39;;;;;;;193.82;176.78;;;;;;;18.45;100.00;100138.13;1435851;98;21337;-88
2022/09/12 09:12:36;;;;;;;247.63;226.80;;;;;;;18.55;100.00;100135.84;1439613;97;21169;-88
2022/09/12 09:15:23;;;;;;;205.98;188.47;;;;;;;18.84;100.00;100124.80;1479336;92;21222;-89
2022/09/12 09:18:00;;;;;;;286.73;262.57;;;;;;;19.17;100.00;100121.44;1533705;92;21249;-89
2022/09/12 09:20:48;;;;;;;329.65;302.10;;;;;;;19.50;100.00;100116.10;1515675;92;21048;-89
2022/09/12 09:23:35;;;;;;;396.23;363.02;;;;;;;19.96;100.00;100116.52;1536360;92;22079;-89
2022/09/12 09:26:14;;;;;;;289.60;265.82;;;;;;;20.76;100.00;100111.33;1511960;93;21098;-88
2022/09/12 09:29:16;;;;;;;225.82;207.15;;;;;;;21.25;100.00;100111.93;1519161;92;21131;-79
2022/09/12 09:31:47;;;;;;;205.03;188.68;;;;;;;21.17;100.00;100115.01;1512172;93;21185;-79
2022/09/12 09:34:23;;;;;;;155.57;143.25;;;;;;;21.60;100.00;100108.15;1518944;92;21142;-79
2022/09/12 09:37:21;;;;;;;157.85;144.70;;;;;;;21.95;100.00;100111.14;1565746;88;21102;-79
2022/09/12 09:40:22;;;;;;;140.22;129.00;;;;;;;22.15;100.00;100111.30;1573729;89;21170;-79
2022/09/12 09:43:02;;;;;;;197.93;182.50;;;;;;;22.48;100.00;100104.77;1573230;89;21687;-79
2022/09/12 09:45:28;;;;;;;342.85;317.87;;;;;;;22.75;100.00;100105.84;1558448;90;21122;-80
2022/09/12 09:48:09;;;;;;;377.38;350.20;;;;;;;23.00;100.00;100099.05;1568769;89;21003;-80
2022/09/12 09:50:37;;;;;;;381.38;352.38;;;;;;;23.58;100.00;100106.64;1571445;89;21183;-79
2022/09/12 09:53:05;;;;;;;390.32;359.02;;;;;;;23.87;97.92;100112.21;1582843;89;21119;-82
2022/09/12 09:55:36;;;;;;;436.60;401.37;;;;;;;24.03;96.48;100106.07;1556334;90;21054;-80
2022/09/12 09:58:03;;;;;;;469.28;431.63;;;;;;;24.37;94.56;100111.81;1579405;89;21153;-79
2022/09/12 10:00:35;;;;;;;367.05;336.90;;;;;;;24.88;90.29;100114.34;1600507;89;21110;-79
2022/09/12 10:03:16;;;;;;;396.52;363.75;;;;;;;25.24;87.43;100105.87;1616293;85;21163;-80
2022/09/12 10:05:48;;;;;;;351.80;323.62;;;;;;;25.36;83.36;100102.30;1649982;86;20971;-79
2022/09/12 10:08:29;;;;;;;293.25;269.60;;;;;;;25.45;81.19;100106.76;1648004;86;21534;-80
2022/09/12 10:11:18;;;;;;;355.67;326.70;;;;;;;25.35;82.47;100098.52;1626376;86;21038;-79
2022/09/12 10:13:56;;;;;;;237.23;218.88;;;;;;;25.38;79.92;100098.59;1649637;86;21041;-80
2022/09/12 10:16:27;;;;;;;223.78;206.40;;;;;;;25.08;77.69;100100.45;1647294;86;21195;-79
2022/09/12 10:18:57;;;;;;;209.03;193.13;;;;;;;25.02;78.20;100099.18;1643766;84;21149;-79
2022/09/12 10:21:38;;;;;;;197.60;182.30;;;;;;;25.05;78.26;100100.61;1683604;83;21153;-78
2022/09/12 10:24:27;;;;;;;192.45;177.87;;;;;;;25.20;80.33;100091.20;1689018;84;21043;-79
2022/09/12 10:27:14;;;;;;;174.20;160.97;;;;;;;25.38;76.90;100088.94;1686178;84;21601;-79
2022/09/12 10:30:18;;;;;;;174.07;160.60;;;;;;;25.10;75.59;100085.72;1644955;86;21132;-78
2022/09/12 10:32:49;;;;;;;142.13;131.32;;;;;;;24.83;73.18;100081.56;1613271;86;21074;-78
2022/09/12 10:35:24;;;;;;;146.72;135.70;;;;;;;24.57;75.14;100083.69;1600934;87;21150;-78
2022/09/12 10:38:01;;;;;;;143.72;133.25;;;;;;;24.91;74.11;100080.52;1534100;91;21119;-78
2022/09/12 10:40:32;;;;;;;127.12;117.62;;;;;;;24.93;69.31;100074.03;1597710;87;21200;-79
2022/09/12 10:43:01;;;;;;;127.45;118.20;;;;;;;24.50;72.07;100073.90;1601872;88;22038;-79
2022/09/12 10:48:30;;;;;;;125.50;116.17;;;;;;;24.56;70.42;100086.79;1489914;94;21323;-81
2022/09/12 10:50:59;;;;;;;112.10;103.60;;;;;;;24.30;70.69;100085.53;1490729;95;21165;-79
2022/09/12 10:53:30;;;;;;;110.52;102.35;;;;;;;24.35;71.09;100089.34;1485181;96;21711;-79
2022/09/12 10:56:22;;;;;;;119.90;110.80;;;;;;;24.42;70.28;100094.20;1476789;95;21180;-79
2022/09/12 10:59:27;;;;;;;120.40;111.30;;;;;;;24.22;69.44;100096.19;1461212;93;21786;-80
2022/09/12 11:02:11;;;;;;;113.28;105.35;;;;;;;24.33;68.19;100095.03;1514873;93;21107;-80
2022/09/12 11:05:00;;;;;;;114.72;106.67;;;;;;;24.61;68.43;100105.78;1480298;95;21230;-80
2022/09/12 11:07:41;;;;;;;114.42;106.15;;;;;;;24.37;65.97;100103.55;1496697;94;21143;-81
2022/09/12 11:10:36;;;;;;;106.27;98.50;;;;;;;24.30;65.77;100104.81;1500838;95;21277;-81
2022/09/12 11:13:13;;;;;;;118.62;109.35;;;;;;;24.16;67.93;100099.81;1513884;92;21769;-80
2022/09/12 11:16:02;;;;;;;121.13;112.22;;;;;;;24.13;66.04;100108.02;1465516;96;21117;-80
2022/09/12 11:19:04;;;;;;;122.17;113.40;;;;;;;24.34;65.94;100101.53;1476903;96;21286;-81
2022/09/12 11:22:09;;;;;;;122.75;113.50;;;;;;;24.58;65.88;100104.55;1458965;96;21742;-81
2022/09/12 11:25:11;;;;;;;120.87;112.08;;;;;;;24.66;64.52;100109.03;1445684;97;21200;-80
2022/09/12 11:28:15;;;;;;;120.22;111.57;;;;;;;24.68;64.28;100101.79;1443825;97;21159;-80